createdAt,value
2023-09-14T00:02:07.231Z,22.99
2023-09-14T00:05:11.142Z,22.96
2023-09-14T00:08:14.256Z,22.88
2023-09-14T00:11:17.073Z,22.87
2023-09-14T00:14:19.801Z,22.76
2023-09-14T00:17:22.560Z,22.74
2023-09-14T00:20:35.614Z,22.76
2023-09-14T00:23:38.575Z,22.67
2023-09-14T00:26:41.308Z,22.63
2023-09-14T00:29:44.175Z,22.67
2023-09-14T00:32:48.756Z,22.60
2023-09-14T00:35:51.748Z,22.57
2023-09-14T00:38:54.461Z,22.44
2023-09-14T00:41:57.241Z,22.34
2023-09-14T00:45:00.011Z,22.22
2023-09-14T00:48:05.907Z,22.14
2023-09-14T00:51:08.984Z,22.07
2023-09-14T00:54:11.802Z,21.98
2023-09-14T00:57:14.698Z,21.91
2023-09-14T01:00:18.166Z,22.00
2023-09-14T01:03:21.072Z,21.92
2023-09-14T01:06:26.186Z,21.85
2023-09-14T01:09:29.092Z,21.80
2023-09-14T01:12:33.771Z,21.81
2023-09-14T01:15:43.435Z,21.74
2023-09-14T01:18:56.634Z,21.65
2023-09-14T01:22:21.524Z,21.60
2023-09-14T01:25:45.130Z,21.61
2023-09-14T01:28:49.106Z,21.57
2023-09-14T01:31:51.864Z,21.45
2023-09-14T01:34:55.407Z,21.35
2023-09-14T01:37:59.487Z,21.31
2023-09-14T01:41:03.630Z,21.29
2023-09-14T01:44:07.318Z,21.23
2023-09-14T01:47:10.293Z,21.14
2023-09-14T01:50:13.816Z,21.08
2023-09-14T01:53:23.710Z,21.14
2023-09-14T01:56:26.545Z,21.03
2023-09-14T01:59:31.318Z,20.96
2023-09-14T02:02:34.667Z,20.99
2023-09-14T02:05:37.433Z,20.95
2023-09-14T02:08:40.324Z,20.93
2023-09-14T02:11:45.134Z,20.79
2023-09-14T02:14:49.430Z,20.65
2023-09-14T02:17:53.823Z,20.61
2023-09-14T02:20:56.690Z,20.54
2023-09-14T02:23:59.503Z,20.43
2023-09-14T02:27:02.265Z,20.35
2023-09-14T02:30:05.765Z,20.29
2023-09-14T02:33:09.172Z,20.26
2023-09-14T02:36:12.392Z,20.20
2023-09-14T02:39:15.121Z,20.20
2023-09-14T02:42:18.006Z,20.20
2023-09-14T02:45:20.829Z,20.12
2023-09-14T02:48:23.583Z,20.08
2023-09-14T02:51:26.392Z,20.05
2023-09-14T02:54:29.142Z,20.01
2023-09-14T02:57:31.902Z,19.97
2023-09-14T03:00:35.346Z,19.92
2023-09-14T03:03:39.850Z,19.83
2023-09-14T03:06:43.112Z,19.80
2023-09-14T03:09:46.066Z,19.72
2023-09-14T03:12:49.977Z,19.72
2023-09-14T03:16:00.191Z,19.62
2023-09-14T03:19:03.156Z,19.60
2023-09-14T03:22:08.335Z,19.54
2023-09-14T03:25:12.521Z,19.52
2023-09-14T03:28:16.917Z,19.49
2023-09-14T03:31:20.902Z,19.44
2023-09-14T03:34:23.964Z,19.38
2023-09-14T03:37:26.938Z,19.35
2023-09-14T03:40:30.163Z,19.30
2023-09-14T03:43:33.169Z,19.29
2023-09-14T03:46:36.160Z,19.28
2023-09-14T03:49:38.961Z,19.21
2023-09-14T03:52:41.797Z,19.18
2023-09-14T03:55:44.584Z,19.23
2023-09-14T03:58:48.653Z,19.17
2023-09-14T04:01:52.140Z,19.21
2023-09-14T04:04:55.083Z,19.24
2023-09-14T04:07:57.932Z,19.18
2023-09-14T04:11:03.840Z,19.13
2023-09-14T04:14:06.656Z,19.07
2023-09-14T04:17:09.608Z,19.08
2023-09-14T04:20:12.418Z,19.01
2023-09-14T04:23:16.928Z,18.96
2023-09-14T04:26:21.034Z,19.00
2023-09-14T04:29:24.086Z,18.99
2023-09-14T04:32:27.009Z,19.01
2023-09-14T04:35:30.018Z,19.05
2023-09-14T04:38:33.962Z,19.11
2023-09-14T04:41:38.404Z,19.16
2023-09-14T04:44:41.291Z,19.30
2023-09-14T04:47:44.284Z,19.35
2023-09-14T04:50:47.432Z,19.42
2023-09-14T04:53:50.532Z,19.53
2023-09-14T04:56:53.505Z,19.63
2023-09-14T04:59:56.352Z,19.73
2023-09-14T05:02:59.328Z,19.72
2023-09-14T05:06:04.018Z,19.91
2023-09-14T05:09:07.194Z,19.98
2023-09-14T05:12:10.002Z,19.77
2023-09-14T05:15:12.732Z,19.91
2023-09-14T05:18:15.619Z,20.03
2023-09-14T05:21:18.723Z,20.27
2023-09-14T05:24:21.639Z,20.46
2023-09-14T05:27:26.417Z,20.66
2023-09-14T05:30:29.324Z,20.77
2023-09-14T05:33:32.421Z,20.96
2023-09-14T05:36:35.338Z,21.03
2023-09-14T05:39:44.071Z,21.11
2023-09-14T05:42:47.921Z,21.05
2023-09-14T05:45:52.406Z,21.25
2023-09-14T05:48:55.727Z,21.19
2023-09-14T05:51:59.741Z,21.53
2023-09-14T05:55:07.381Z,21.71
2023-09-14T05:58:12.045Z,21.98
2023-09-14T06:01:15.956Z,22.27
2023-09-14T06:04:19.447Z,22.61
2023-09-14T06:07:26.890Z,22.65
2023-09-14T06:10:29.948Z,22.95
2023-09-14T06:13:32.987Z,23.52
2023-09-14T06:19:53.475Z,25.08
2023-09-14T06:22:56.317Z,24.53
2023-09-14T06:25:59.218Z,24.53
2023-09-14T06:29:02.181Z,24.94
2023-09-14T06:32:05.301Z,25.41
2023-09-14T06:38:35.028Z,26.42
2023-09-14T06:41:37.891Z,26.63
2023-09-14T06:44:40.711Z,26.47
2023-09-14T06:47:43.783Z,26.00
2023-09-14T06:50:47.918Z,26.13
2023-09-14T06:53:52.742Z,26.04
2023-09-14T06:56:55.587Z,26.82
2023-09-14T07:00:02.088Z,27.10
2023-09-14T07:03:23.730Z,28.03
2023-09-14T07:06:30.213Z,28.61
2023-09-14T07:09:55.066Z,29.65
2023-09-14T07:13:00.832Z,30.68
2023-09-14T07:16:06.701Z,32.16
2023-09-14T07:19:09.933Z,30.78
2023-09-14T07:22:12.711Z,29.44
2023-09-14T07:25:16.058Z,28.26
2023-09-14T07:28:26.835Z,27.13
2023-09-14T07:31:30.301Z,26.74
2023-09-14T07:34:36.505Z,26.92
2023-09-14T07:37:40.137Z,29.79
2023-09-14T07:40:43.530Z,31.78
2023-09-14T07:43:46.656Z,32.71
2023-09-14T07:46:50.017Z,33.29
2023-09-14T07:49:53.184Z,32.56
2023-09-14T07:52:56.096Z,34.01
2023-09-14T07:55:59.184Z,33.91
2023-09-14T07:59:02.141Z,33.39
2023-09-14T08:02:09.317Z,34.44
2023-09-14T08:05:12.201Z,35.22
2023-09-14T08:08:16.276Z,35.35
2023-09-14T08:11:19.393Z,35.47
2023-09-14T08:14:22.555Z,35.15
2023-09-14T08:17:25.742Z,36.05
2023-09-14T08:20:29.207Z,36.61
2023-09-14T08:23:32.526Z,37.52
2023-09-14T08:26:35.999Z,37.76
2023-09-14T08:29:45.253Z,36.72
2023-09-14T08:32:51.295Z,37.38
2023-09-14T08:35:55.627Z,37.39
2023-09-14T08:39:11.080Z,36.85
2023-09-14T08:42:21.704Z,36.66
2023-09-14T08:45:52.364Z,36.23
2023-09-14T08:49:02.444Z,35.58
2023-09-14T08:52:08.581Z,33.87
2023-09-14T08:55:12.953Z,33.39
2023-09-14T08:58:17.449Z,32.91
2023-09-14T09:01:20.445Z,33.95
2023-09-14T09:04:23.618Z,35.98
2023-09-14T09:07:30.034Z,36.80
2023-09-14T09:10:33.309Z,36.62
2023-09-14T09:13:41.773Z,36.65
2023-09-14T09:16:45.147Z,38.84
2023-09-14T09:19:49.878Z,37.59
2023-09-14T09:22:57.403Z,35.87
2023-09-14T09:26:02.922Z,38.34
2023-09-14T09:29:20.631Z,35.79
2023-09-14T09:32:23.791Z,35.58
2023-09-14T09:35:30.175Z,33.33
2023-09-14T09:38:47.180Z,35.05
2023-09-14T09:41:52.872Z,37.62
2023-09-14T09:44:58.856Z,39.50
2023-09-14T09:48:03.206Z,39.73
2023-09-14T09:51:35.876Z,37.50
2023-09-14T09:54:38.870Z,35.80
2023-09-14T09:57:54.646Z,34.73
2023-09-14T10:00:58.751Z,33.77
2023-09-14T10:04:02.409Z,32.66
2023-09-14T10:07:10.274Z,32.39
2023-09-14T10:10:13.469Z,33.73
2023-09-14T10:13:17.907Z,34.08
2023-09-14T10:16:26.966Z,33.34
2023-09-14T10:19:30.888Z,32.82
2023-09-14T10:22:36.119Z,32.26
2023-09-14T10:25:40.377Z,32.85
2023-09-14T10:28:44.702Z,31.70
2023-09-14T10:31:49.676Z,31.16
2023-09-14T10:35:05.547Z,31.10
2023-09-14T10:38:11.006Z,34.12
2023-09-14T10:41:15.435Z,34.76
2023-09-14T10:44:20.994Z,37.50
2023-09-14T10:47:28.516Z,37.72
2023-09-14T10:50:32.935Z,37.94
2023-09-14T10:53:36.441Z,36.85
2023-09-14T10:56:39.859Z,36.96
2023-09-14T10:59:51.704Z,37.06
2023-09-14T11:03:16.716Z,37.10
2023-09-14T11:06:50.370Z,39.14
2023-09-14T11:10:05.610Z,38.88
2023-09-14T11:13:21.184Z,36.12
2023-09-14T11:16:28.693Z,38.14
2023-09-14T11:22:38.573Z,38.58
2023-09-14T11:26:04.751Z,38.16
2023-09-14T11:29:08.494Z,37.64
2023-09-14T11:32:20.618Z,35.01
2023-09-14T11:35:37.539Z,35.32
2023-09-14T11:38:48.296Z,35.04
2023-09-14T11:41:59.274Z,36.64
2023-09-14T11:45:11.446Z,37.58
2023-09-14T11:51:26.596Z,39.12
2023-09-14T11:54:33.663Z,38.86
2023-09-14T11:57:37.190Z,39.71
2023-09-14T12:00:48.551Z,38.30
2023-09-14T12:03:51.862Z,37.05
2023-09-14T12:06:56.706Z,38.68
2023-09-14T12:10:00.469Z,38.60
2023-09-14T12:17:56.248Z,35.24
2023-09-14T12:21:00.801Z,35.59
2023-09-14T12:24:04.411Z,38.09
2023-09-14T12:27:07.802Z,37.64
2023-09-14T12:30:12.523Z,35.98
2023-09-14T12:33:16.464Z,37.55
2023-09-14T12:36:22.642Z,38.93
2023-09-14T12:39:26.513Z,37.67
2023-09-14T12:42:29.425Z,37.43
2023-09-14T12:45:34.866Z,36.79
2023-09-14T12:48:37.933Z,36.19
2023-09-14T12:51:49.393Z,35.56
2023-09-14T12:54:53.186Z,33.85
2023-09-14T12:57:58.149Z,33.32
2023-09-14T13:01:01.035Z,32.99
2023-09-14T13:04:04.956Z,33.44
2023-09-14T13:07:16.542Z,32.87
2023-09-14T13:10:24.662Z,32.47
2023-09-14T13:13:31.641Z,32.09
2023-09-14T13:16:34.933Z,31.18
2023-09-14T13:19:38.877Z,31.09
2023-09-14T13:22:42.312Z,31.06
2023-09-14T13:25:45.244Z,30.93
2023-09-14T13:28:48.415Z,31.99
2023-09-14T13:31:51.896Z,31.53
2023-09-14T13:34:54.790Z,31.19
2023-09-14T13:37:58.682Z,31.23
2023-09-14T13:41:01.634Z,33.24
2023-09-14T13:44:04.741Z,31.99
2023-09-14T13:47:07.645Z,30.31
2023-09-14T13:50:11.120Z,29.68
2023-09-14T13:53:15.689Z,29.19
2023-09-14T13:56:20.215Z,29.28
2023-09-14T13:59:23.874Z,30.10
2023-09-14T14:02:26.917Z,30.51
2023-09-14T14:05:29.688Z,31.02
2023-09-14T14:08:32.761Z,32.46
2023-09-14T14:11:35.537Z,32.42
2023-09-14T14:14:39.426Z,31.14
2023-09-14T14:17:42.286Z,32.58
2023-09-14T14:20:45.390Z,31.42
2023-09-14T14:23:48.181Z,30.24
2023-09-14T14:26:52.618Z,29.80
2023-09-14T14:29:55.469Z,29.49
2023-09-14T14:32:58.513Z,29.25
2023-09-14T14:36:01.410Z,28.86
2023-09-14T14:39:04.958Z,28.53
2023-09-14T14:42:08.024Z,28.04
2023-09-14T14:45:11.204Z,27.91
2023-09-14T14:48:14.160Z,27.66
2023-09-14T14:51:17.222Z,27.43
2023-09-14T14:54:20.251Z,27.33
2023-09-14T14:57:23.633Z,27.18
2023-09-14T15:00:26.491Z,27.29
2023-09-14T15:03:32.133Z,27.31
2023-09-14T15:06:35.176Z,27.20
2023-09-14T15:09:38.734Z,27.31
2023-09-14T15:12:41.656Z,26.97
2023-09-14T15:15:44.459Z,26.81
2023-09-14T15:18:47.415Z,27.19
2023-09-14T15:21:50.372Z,26.96
2023-09-14T15:24:53.245Z,26.95
2023-09-14T15:27:56.402Z,26.76
2023-09-14T15:31:11.084Z,26.38
2023-09-14T15:34:13.846Z,26.31
2023-09-14T15:37:16.655Z,26.13
2023-09-14T15:40:19.678Z,25.88
2023-09-14T15:43:22.807Z,25.72
2023-09-14T15:46:26.267Z,25.47
2023-09-14T15:49:29.135Z,25.45
2023-09-14T15:52:32.631Z,25.27
2023-09-14T15:55:35.411Z,25.35
2023-09-14T15:58:38.160Z,25.35
2023-09-14T16:01:41.435Z,25.29
2023-09-14T16:04:50.760Z,25.20
2023-09-14T16:08:08.385Z,25.06
2023-09-14T16:11:11.326Z,24.96
2023-09-14T16:14:15.961Z,24.90
2023-09-14T16:17:18.765Z,24.86
2023-09-14T16:20:22.693Z,24.82
2023-09-14T16:23:26.403Z,24.87
2023-09-14T16:26:29.850Z,24.78
2023-09-14T16:29:32.700Z,24.70
2023-09-14T16:32:35.776Z,24.51
2023-09-14T16:35:42.466Z,24.46
2023-09-14T16:38:46.324Z,24.40
2023-09-14T16:41:49.389Z,24.32
2023-09-14T16:44:52.158Z,24.27
2023-09-14T16:47:55.573Z,24.08
2023-09-14T16:50:58.330Z,24.10
2023-09-14T16:54:01.303Z,23.98
2023-09-14T16:57:07.055Z,23.91
2023-09-14T17:00:10.469Z,23.84
2023-09-14T17:03:13.563Z,23.79
2023-09-14T17:06:16.368Z,23.70
2023-09-14T17:09:19.157Z,23.60
2023-09-14T17:12:21.989Z,23.56
2023-09-14T17:15:25.062Z,23.52
2023-09-14T17:18:27.964Z,23.48
2023-09-14T17:21:31.298Z,23.44
2023-09-14T17:24:34.225Z,23.40
2023-09-14T17:27:37.057Z,23.24
2023-09-14T17:30:40.715Z,23.17
2023-09-14T17:33:46.257Z,23.08
2023-09-14T17:36:50.342Z,22.97
2023-09-14T17:39:53.296Z,22.86
2023-09-14T17:42:56.227Z,22.72
2023-09-14T17:45:59.259Z,22.63
2023-09-14T17:49:06.431Z,22.57
2023-09-14T17:52:09.964Z,22.51
2023-09-14T17:55:13.013Z,22.44
2023-09-14T17:58:16.023Z,22.43
2023-09-14T18:01:18.839Z,22.43
2023-09-14T18:04:21.762Z,22.46
2023-09-14T18:07:24.725Z,22.42
2023-09-14T18:10:27.638Z,22.35
2023-09-14T18:13:30.654Z,22.31
2023-09-14T18:16:33.485Z,22.23
2023-09-14T18:19:38.031Z,22.18
2023-09-14T18:22:42.809Z,22.11
2023-09-14T18:25:45.693Z,22.04
2023-09-14T18:28:48.791Z,21.94
2023-09-14T18:32:07.769Z,21.89
2023-09-14T18:35:10.946Z,21.85
2023-09-14T18:38:13.768Z,21.78
2023-09-14T18:41:17.997Z,21.70
2023-09-14T18:44:21.389Z,21.64
2023-09-14T18:47:24.315Z,21.56
2023-09-14T18:50:27.351Z,21.51
2023-09-14T18:53:30.478Z,21.53
2023-09-14T18:56:33.251Z,21.43
2023-09-14T18:59:36.353Z,21.32
2023-09-14T19:02:46.109Z,21.27
2023-09-14T19:05:54.374Z,21.20
2023-09-14T19:08:57.620Z,21.10
2023-09-14T19:12:00.416Z,21.06
2023-09-14T19:15:04.372Z,21.02
2023-09-14T19:18:07.537Z,21.02
2023-09-14T19:21:10.525Z,20.99
2023-09-14T19:24:13.318Z,21.04
2023-09-14T19:27:16.285Z,20.96
2023-09-14T19:30:19.148Z,20.97
2023-09-14T19:33:22.202Z,20.97
2023-09-14T19:36:26.362Z,21.00
2023-09-14T19:39:29.444Z,21.11
2023-09-14T19:42:32.511Z,21.17
2023-09-14T19:45:36.593Z,21.25
2023-09-14T19:48:45.007Z,21.28
2023-09-14T19:51:48.559Z,21.30
2023-09-14T19:54:51.620Z,21.30
2023-09-14T19:57:54.498Z,21.21
2023-09-14T20:00:57.407Z,21.20
2023-09-14T20:04:00.485Z,21.11
2023-09-14T20:07:03.682Z,21.04
2023-09-14T20:10:07.732Z,20.94
2023-09-14T20:13:10.761Z,20.90
2023-09-14T20:16:13.762Z,20.82
2023-09-14T20:19:16.697Z,20.83
2023-09-14T20:22:19.558Z,20.76
2023-09-14T20:25:22.396Z,20.82
2023-09-14T20:28:25.324Z,20.78
2023-09-14T20:31:28.088Z,20.72
2023-09-14T20:34:31.092Z,20.70
2023-09-14T20:37:37.672Z,20.68
2023-09-14T20:40:42.631Z,20.60
2023-09-14T20:43:45.336Z,20.52
2023-09-14T20:46:49.065Z,20.43
2023-09-14T20:49:52.041Z,20.42
2023-09-14T20:52:56.695Z,20.41
2023-09-14T20:56:02.013Z,20.36
2023-09-14T20:59:06.252Z,20.30
2023-09-14T21:02:09.691Z,20.22
2023-09-14T21:05:12.547Z,20.22
2023-09-14T21:08:16.400Z,20.19
2023-09-14T21:11:19.188Z,20.19
2023-09-14T21:14:28.276Z,20.22
2023-09-14T21:17:31.051Z,20.24
2023-09-14T21:20:33.883Z,20.25
2023-09-14T21:23:39.036Z,20.25
2023-09-14T21:26:43.043Z,20.30
2023-09-14T21:29:47.300Z,20.38
2023-09-14T21:32:50.089Z,20.37
2023-09-14T21:35:57.518Z,20.43
2023-09-14T21:39:00.847Z,20.39
2023-09-14T21:42:04.292Z,20.37
2023-09-14T21:45:07.846Z,20.35
2023-09-14T21:48:10.735Z,20.36
2023-09-14T21:51:13.528Z,20.38
2023-09-14T21:54:16.218Z,20.34
2023-09-14T21:57:20.153Z,20.32
2023-09-14T22:00:25.839Z,20.33
2023-09-14T22:03:45.038Z,20.22
2023-09-14T22:06:53.148Z,20.21
2023-09-14T22:09:55.970Z,20.18
2023-09-14T22:12:58.870Z,20.16
2023-09-14T22:16:01.738Z,20.14
2023-09-14T22:19:04.578Z,20.09
2023-09-14T22:22:08.531Z,20.07
2023-09-14T22:25:11.540Z,20.13
2023-09-14T22:28:14.760Z,20.10
2023-09-14T22:31:17.721Z,20.05
2023-09-14T22:34:20.679Z,20.03
2023-09-14T22:37:29.392Z,20.02
2023-09-14T22:40:39.370Z,20.07
2023-09-14T22:43:42.720Z,20.06
2023-09-14T22:46:45.495Z,20.04
2023-09-14T22:49:48.303Z,20.03
2023-09-14T22:52:53.124Z,20.07
2023-09-14T22:55:55.868Z,20.03
2023-09-14T22:58:58.668Z,20.04
2023-09-14T23:02:01.577Z,20.06
2023-09-14T23:05:06.501Z,20.02
2023-09-14T23:08:11.140Z,20.04
2023-09-14T23:11:24.921Z,20.07
2023-09-14T23:14:31.498Z,19.96
2023-09-14T23:17:35.131Z,19.93
2023-09-14T23:20:40.472Z,19.88
2023-09-14T23:23:43.863Z,19.84
2023-09-14T23:26:49.726Z,19.75
2023-09-14T23:29:53.317Z,19.76
2023-09-14T23:32:56.834Z,19.65
2023-09-14T23:35:59.640Z,19.63
2023-09-14T23:39:05.876Z,19.60
2023-09-14T23:42:10.852Z,19.52
2023-09-14T23:45:14.691Z,19.45
2023-09-14T23:48:17.398Z,19.37
2023-09-14T23:51:21.895Z,19.34
2023-09-14T23:54:24.599Z,19.29
2023-09-14T23:57:27.448Z,19.24
